Time;durP1;ratioP1;P1;durP2;ratioP2;P2;SDS_P1;SDS_P2;PMS_P1;PMS_P2;Temp;Humidity;BMP_temperature;BMP_pressure;BME280_temperature;BME280_humidity;BME280_pressure;Samples;Min_cycle;Max_cycle;Signal;HPM_P1;HPM_P2
2022/11/09 00:01:32;;;;;;;85.77;39.60;;;;;;;-141.97;79.75;47857.38;5055943;28;20230;-82
2022/11/09 00:04:00;;;;;;;87.17;39.93;;;;;;;-141.97;79.94;47722.81;5071940;28;20234;-83
2022/11/09 00:06:27;;;;;;;91.27;42.20;;;;;;;-141.97;80.21;47745.88;5055314;28;20247;-83
2022/11/09 00:08:52;;;;;;;97.17;41.73;;;;;;;-141.97;80.53;47722.81;5073314;28;20171;-83
2022/11/09 00:11:18;;;;;;;95.07;41.73;;;;;;;-141.97;80.36;47676.69;5073434;28;20169;-82
2022/11/09 00:13:45;;;;;;;89.17;41.33;;;;;;;-141.97;80.30;47653.63;5073656;28;20172;-82
2022/11/09 00:16:13;;;;;;;84.47;39.87;;;;;;;-141.97;80.61;47751.66;5073594;28;20695;-82
2022/11/09 00:18:39;;;;;;;81.27;38.47;;;;;;;-141.97;80.53;47768.94;5073157;28;20610;-82
2022/11/09 00:21:12;;;;;;;89.27;40.43;;;;;;;-141.97;80.88;47742.03;5073219;28;20171;-82
2022/11/09 00:23:38;;;;;;;87.13;40.20;;;;;;;-141.97;81.15;47692.06;5073169;28;20168;-82
2022/11/09 00:26:05;;;;;;;92.43;40.33;;;;;;;-141.97;81.17;47749.72;5072947;28;20171;-83
2022/11/09 00:28:31;;;;;;;87.63;40.27;;;;;;;-141.97;81.14;47749.72;5074845;28;20277;-82
2022/11/09 00:31:11;;;;;;;90.33;40.77;;;;;;;-141.97;81.60;47745.88;5076972;28;20225;-82
2022/11/09 00:33:37;;;;;;;87.87;40.53;;;;;;;-141.97;81.08;47749.72;5076839;28;20171;-82
2022/11/09 00:36:08;;;;;;;89.07;39.50;;;;;;;-141.97;81.29;47699.75;5076746;28;20591;-82
2022/11/09 00:38:34;;;;;;;89.33;40.23;;;;;;;-141.97;81.63;47720.91;5076436;28;20617;-81
2022/11/09 00:41:01;;;;;;;91.93;39.40;;;;;;;-141.97;81.91;47747.81;5077028;28;20168;-82
2022/11/09 00:43:26;;;;;;;88.57;39.67;;;;;;;-141.97;82.08;47732.44;5077060;28;20161;-82
2022/11/09 00:45:52;;;;;;;92.03;39.47;;;;;;;-141.97;81.86;47755.50;5076651;28;20169;-83
2022/11/09 00:48:17;;;;;;;81.30;37.33;;;;;;;-141.97;82.43;47770.88;5077000;28;20184;-82
2022/11/09 00:50:48;;;;;;;84.23;38.07;;;;;;;-141.97;82.24;47776.63;5076541;28;20197;-82
2022/11/09 00:53:13;;;;;;;83.67;37.63;;;;;;;-141.97;82.59;47661.31;5076823;28;20160;-82
2022/11/09 00:55:39;;;;;;;84.40;37.07;;;;;;;-141.97;83.52;47834.31;5076407;28;20168;-82
2022/11/09 00:58:04;;;;;;;89.33;38.20;;;;;;;-141.97;86.00;47749.72;5076531;28;20160;-82
2022/11/09 01:00:29;;;;;;;88.10;39.23;;;;;;;-141.97;86.41;47757.41;5076461;28;20156;-82
2022/11/09 01:02:55;;;;;;;91.77;40.20;;;;;;;-141.97;88.22;47722.81;5076363;28;20640;-81
2022/11/09 01:05:20;;;;;;;101.17;39.87;;;;;;;-141.97;89.41;47838.16;5076291;28;20290;-82
2022/11/09 01:07:46;;;;;;;87.47;39.37;;;;;;;-141.97;89.44;47715.13;5076647;28;20553;-82
2022/11/09 01:10:11;;;;;;;91.27;39.63;;;;;;;-141.97;88.60;47745.88;5079703;28;20168;-82
2022/11/09 01:12:36;;;;;;;87.10;38.37;;;;;;;-141.97;87.94;47797.78;5079740;28;20684;-82
2022/11/09 01:15:02;;;;;;;88.03;39.43;;;;;;;-141.97;87.40;47680.53;5077020;28;20240;-82
2022/11/09 01:17:28;;;;;;;84.43;38.77;;;;;;;-141.97;87.33;47717.06;5058186;28;20600;-82
2022/11/09 01:19:53;;;;;;;89.70;38.73;;;;;;;-141.97;86.89;47738.19;5057959;28;20172;-82
2022/11/09 01:22:19;;;;;;;85.33;39.17;;;;;;;-141.97;87.45;47765.09;5076372;28;20629;-82
2022/11/09 01:24:44;;;;;;;93.93;38.60;;;;;;;-141.97;87.06;47682.47;5057343;28;20212;-82
2022/11/09 01:27:10;;;;;;;92.30;40.40;;;;;;;-141.97;86.74;47705.53;5055957;28;20185;-82
2022/11/09 01:29:35;;;;;;;85.83;38.73;;;;;;;-141.97;86.62;47736.28;5056381;28;20169;-82
2022/11/09 01:32:01;;;;;;;95.07;39.93;;;;;;;-141.97;86.77;47797.78;5058462;28;20166;-82
2022/11/09 01:34:27;;;;;;;91.57;39.67;;;;;;;-141.97;86.35;47724.75;5062364;28;20295;-82
2022/11/09 01:36:53;;;;;;;91.00;40.07;;;;;;;-141.97;85.78;47849.69;5056333;28;20157;-83
2022/11/09 01:39:18;;;;;;;93.80;40.07;;;;;;;-141.97;86.07;47726.66;5055490;28;20731;-83
2022/11/09 01:41:44;;;;;;;84.00;39.23;;;;;;;-141.97;85.76;47859.28;5055653;28;20176;-83
2022/11/09 01:44:13;;;;;;;82.93;38.17;;;;;;;-141.97;85.42;47768.94;5055572;28;20166;-82
2022/11/09 01:46:54;;;;;;;81.20;37.97;;;;;;;-141.97;84.52;47765.09;5037657;28;20184;-82
2022/11/09 01:49:40;;;;;;;86.77;38.63;;;;;;;-141.97;84.61;47765.09;5062264;28;20575;-82
2022/11/09 01:52:08;;;;;;;86.70;37.63;;;;;;;-141.97;84.18;47728.59;5057524;28;20173;-82
2022/11/09 01:54:41;;;;;;;93.97;39.93;;;;;;;-141.97;84.96;47792.03;5056229;28;20170;-82
2022/11/09 01:57:25;;;;;;;89.33;40.27;;;;;;;-141.97;84.70;47755.50;5055340;28;20165;-82
2022/11/09 01:59:56;;;;;;;82.93;38.97;;;;;;;-141.97;84.90;47768.94;5055993;28;20243;-82
2022/11/09 02:02:23;;;;;;;80.27;37.70;;;;;;;-141.97;85.10;47713.22;5055858;28;20645;-83
2022/11/09 02:04:55;;;;;;;89.17;39.50;;;;;;;-141.97;84.78;47780.47;5055124;28;20169;-83
2022/11/09 02:07:21;;;;;;;84.67;39.07;;;;;;;-141.97;84.52;47674.78;5055390;28;20196;-82
2022/11/09 02:09:54;;;;;;;89.57;41.63;;;;;;;-141.97;85.23;47742.03;5055191;28;20166;-82
2022/11/09 02:12:21;;;;;;;89.27;39.40;;;;;;;-141.97;85.30;47815.09;5055310;28;20633;-82
2022/11/09 02:14:51;;;;;;;87.87;40.03;;;;;;;-141.97;87.18;47684.38;5055600;28;20189;-82
2022/11/09 02:17:18;;;;;;;93.80;40.50;;;;;;;-141.97;87.44;47661.31;5055960;28;20301;-82
2022/11/09 02:19:43;;;;;;;93.67;39.23;;;;;;;-141.97;87.57;47793.94;5055297;28;20248;-83
2022/11/09 02:22:08;;;;;;;88.73;39.63;;;;;;;-141.97;87.32;47713.22;5054776;28;20637;-83
2022/11/09 02:24:34;;;;;;;90.37;39.83;;;;;;;-141.97;87.09;47755.50;5037316;28;20176;-83
2022/11/09 02:26:59;;;;;;;88.73;38.63;;;;;;;-141.97;86.84;47792.03;5054731;28;20228;-83
2022/11/09 02:29:31;;;;;;;91.87;40.10;;;;;;;-141.97;88.51;47747.81;5055415;28;20276;-83
2022/11/09 02:32:01;;;;;;;91.80;39.23;;;;;;;-141.97;89.04;47818.94;5054923;28;20166;-83
2022/11/09 02:34:27;;;;;;;93.47;39.57;;;;;;;-141.97;88.68;47653.63;5054712;28;20157;-82
2022/11/09 02:36:52;;;;;;;98.13;39.63;;;;;;;-141.97;88.36;47753.56;5036679;28;20169;-83
2022/11/09 02:39:21;;;;;;;88.60;39.37;;;;;;;-141.97;88.67;47753.56;5036648;28;20181;-82
2022/11/09 02:41:53;;;;;;;91.90;39.93;;;;;;;-141.97;88.74;47751.66;5054252;28;20158;-82
2022/11/09 02:44:19;;;;;;;91.97;40.13;;;;;;;-141.97;88.27;47763.19;5054683;28;20481;-82
2022/11/09 02:46:45;;;;;;;96.17;41.70;;;;;;;-141.97;87.53;47770.88;5053865;28;20207;-82
2022/11/09 02:49:10;;;;;;;94.70;41.40;;;;;;;-141.97;87.40;47680.53;5037970;28;20169;-82
2022/11/09 02:51:36;;;;;;;103.07;42.37;;;;;;;-141.97;87.40;47751.66;5054597;28;20185;-82
2022/11/09 02:54:01;;;;;;;113.80;47.73;;;;;;;-141.97;86.89;47765.09;5054506;28;20172;-83
2022/11/09 02:56:27;;;;;;;107.67;47.33;;;;;;;-141.97;86.76;47730.50;5054750;28;20169;-83
2022/11/09 02:58:52;;;;;;;144.27;64.07;;;;;;;-141.97;86.51;47776.63;5054403;28;20166;-83
2022/11/09 03:01:18;;;;;;;218.97;106.97;;;;;;;-141.97;86.92;47765.09;5053252;28;20172;-82
2022/11/09 03:03:43;;;;;;;150.80;66.37;;;;;;;-141.97;86.89;47745.88;5054154;28;20170;-83
2022/11/09 03:06:09;;;;;;;150.07;65.47;;;;;;;-141.97;87.19;47730.50;5054111;28;20266;-82
2022/11/09 03:08:35;;;;;;;98.10;42.33;;;;;;;-141.97;86.43;47768.94;5054064;28;20619;-82
2022/11/09 03:11:01;;;;;;;93.90;40.73;;;;;;;-141.97;86.52;47830.47;5054328;28;20181;-81
2022/11/09 03:13:26;;;;;;;83.37;38.10;;;;;;;-141.97;86.34;47728.59;5036228;28;20173;-81
2022/11/09 03:15:52;;;;;;;92.03;39.67;;;;;;;-141.97;86.42;47745.88;5036153;28;20172;-82
2022/11/09 03:18:17;;;;;;;90.70;39.23;;;;;;;-141.97;87.28;47743.97;5053732;28;20165;-82
2022/11/09 03:20:42;;;;;;;108.57;48.40;;;;;;;-141.97;87.52;47740.13;5053687;28;20158;-83
2022/11/09 03:23:09;;;;;;;112.20;50.97;;;;;;;-141.97;87.27;47757.41;5053796;28;20162;-82
2022/11/09 03:25:35;;;;;;;111.83;47.10;;;;;;;-141.97;87.01;47759.34;5035609;28;20181;-83
2022/11/09 03:28:04;;;;;;;137.07;61.90;;;;;;;-141.97;86.40;47768.94;5053955;28;20189;-82
2022/11/09 03:30:29;;;;;;;144.07;69.67;;;;;;;-141.97;86.01;47765.09;5053809;28;20595;-82
2022/11/09 03:33:03;;;;;;;154.60;74.57;;;;;;;-141.97;86.51;47768.94;5053607;28;20180;-82
2022/11/09 03:35:29;;;;;;;140.80;60.20;;;;;;;-141.97;86.05;47761.25;5053652;28;20232;-81
2022/11/09 03:37:54;;;;;;;128.67;59.13;;;;;;;-141.97;86.11;47709.38;5053844;28;20173;-82
2022/11/09 03:40:20;;;;;;;144.57;65.00;;;;;;;-141.97;86.12;47778.56;5035711;28;20646;-82
2022/11/09 03:42:47;;;;;;;125.37;55.53;;;;;;;-141.97;85.92;47730.50;5053477;28;20200;-82
2022/11/09 03:45:14;;;;;;;119.77;54.13;;;;;;;-141.97;85.81;47772.78;5053612;28;20206;-82
2022/11/09 03:47:43;;;;;;;192.60;77.80;;;;;;;-141.97;85.65;47765.09;5035535;28;20197;-82
2022/11/09 03:50:10;;;;;;;142.93;57.70;;;;;;;-141.97;85.52;47707.44;5059008;28;20168;-82
2022/11/09 03:52:36;;;;;;;121.10;55.07;;;;;;;-141.97;85.42;47715.13;5052549;28;20181;-82
2022/11/09 03:55:02;;;;;;;121.23;54.73;;;;;;;-141.97;85.55;47767.03;5053695;28;20244;-82
2022/11/09 03:57:27;;;;;;;121.53;53.10;;;;;;;-141.97;85.39;47582.50;5053249;28;20732;-82
2022/11/09 03:59:53;;;;;;;168.07;75.97;;;;;;;-141.97;85.06;47738.19;5053294;28;20191;-82
2022/11/09 04:02:18;;;;;;;209.90;97.80;;;;;;;-141.97;84.58;47776.63;5053245;28;20162;-83
2022/11/09 04:04:43;;;;;;;285.17;129.97;;;;;;;-141.97;84.87;47818.94;5056536;28;20248;-84
2022/11/09 04:07:09;;;;;;;493.23;272.23;;;;;;;-141.97;84.64;47743.97;5059256;28;20193;-83
2022/11/09 04:09:35;;;;;;;452.77;226.60;;;;;;;-141.97;84.73;47659.38;5053601;28;20173;-82
2022/11/09 04:12:00;;;;;;;452.23;230.90;;;;;;;-141.97;84.49;47742.03;5035609;28;20169;-83
2022/11/09 04:14:26;;;;;;;352.30;160.07;;;;;;;-141.97;83.77;47770.88;5054048;28;20168;-82
2022/11/09 04:16:51;;;;;;;186.70;84.00;;;;;;;-141.97;83.54;47749.72;5053541;28;20169;-82
2022/11/09 04:19:17;;;;;;;117.73;54.10;;;;;;;-141.97;83.80;47728.59;5036494;28;20165;-83
2022/11/09 04:21:42;;;;;;;99.50;47.67;;;;;;;-141.97;83.11;47722.81;5053908;28;20157;-82
2022/11/09 04:24:08;;;;;;;92.97;43.70;;;;;;;-141.97;83.00;47740.13;5036851;28;20253;-82
2022/11/09 04:26:33;;;;;;;86.23;41.47;;;;;;;-141.97;82.05;47826.63;5055313;28;20166;-82
2022/11/09 04:28:59;;;;;;;81.10;38.53;;;;;;;-141.97;82.67;47757.41;5051543;28;20170;-83
2022/11/09 04:31:24;;;;;;;77.30;37.73;;;;;;;-141.97;82.20;47807.41;5057124;28;20255;-81
2022/11/09 04:33:50;;;;;;;74.70;37.47;;;;;;;-141.97;83.25;47684.38;5079323;28;20176;-81
2022/11/09 04:36:16;;;;;;;74.87;35.60;;;;;;;-141.97;83.52;47782.41;5061352;28;20602;-82
2022/11/09 04:38:41;;;;;;;71.73;33.97;;;;;;;-141.97;83.67;47767.03;5051718;28;20189;-82
2022/11/09 04:41:07;;;;;;;73.53;36.37;;;;;;;-141.97;84.04;47815.09;5050972;28;20188;-82
2022/11/09 04:43:33;;;;;;;66.60;32.87;;;;;;;-141.97;83.80;47724.75;5033221;28;20189;-82
2022/11/09 04:46:02;;;;;;;69.87;34.57;;;;;;;-141.97;84.12;47749.72;5051508;28;20588;-81
2022/11/09 04:48:29;;;;;;;72.67;35.67;;;;;;;-141.97;83.93;47695.91;5061576;28;20218;-83
2022/11/09 04:51:09;;;;;;;75.03;37.00;;;;;;;-141.97;84.30;47736.28;5069610;28;20200;-81
2022/11/09 04:53:35;;;;;;;106.33;49.43;;;;;;;-141.97;84.61;47680.53;5051096;28;20560;-81
2022/11/09 04:56:01;;;;;;;109.37;51.20;;;;;;;-141.97;84.67;47726.66;5032562;28;20682;-81
2022/11/09 04:58:26;;;;;;;98.83;47.53;;;;;;;-141.97;84.18;47732.44;5050342;28;20188;-81
2022/11/09 05:00:52;;;;;;;118.37;53.73;;;;;;;-141.97;83.67;47759.34;5050250;28;20272;-81
2022/11/09 05:03:18;;;;;;;110.00;51.47;;;;;;;-141.97;83.31;47761.25;5050787;28;20185;-81
2022/11/09 05:05:43;;;;;;;161.97;74.13;;;;;;;-141.97;83.31;47718.97;5051447;28;20264;-82
2022/11/09 05:08:09;;;;;;;247.57;115.77;;;;;;;-141.97;82.53;47740.13;5051248;28;21018;-81
2022/11/09 05:10:35;;;;;;;268.87;123.73;;;;;;;-141.97;81.36;47740.13;5051756;28;20189;-82
2022/11/09 05:13:06;;;;;;;367.83;176.43;;;;;;;-141.97;80.15;47788.19;5051014;28;20716;-82
2022/11/09 05:15:33;;;;;;;378.87;192.27;;;;;;;-141.97;80.48;47761.25;5052751;28;20207;-81
2022/11/09 05:18:00;;;;;;;377.17;196.60;;;;;;;-141.97;80.60;47857.38;5054594;28;20728;-81
2022/11/09 05:20:26;;;;;;;416.80;241.50;;;;;;;-141.97;80.57;47767.03;5054545;28;20669;-81
2022/11/09 05:25:35;;;;;;;448.00;269.27;;;;;;;-141.97;79.69;47722.81;5069638;28;20257;-82
2022/11/09 05:28:00;;;;;;;485.00;309.07;;;;;;;-141.97;79.59;47751.66;5074509;28;20208;-82
2022/11/09 05:30:26;;;;;;;434.13;267.07;;;;;;;-141.97;79.97;47865.06;5074028;28;20189;-83
2022/11/09 05:32:51;;;;;;;316.13;160.23;;;;;;;-141.97;80.36;47759.34;5049808;28;20251;-81
2022/11/09 05:35:16;;;;;;;355.30;184.53;;;;;;;-141.97;80.24;47772.78;5054493;28;20221;-81
2022/11/09 05:37:46;;;;;;;356.07;180.47;;;;;;;-141.97;80.33;47736.28;5054348;28;20177;-81
2022/11/09 05:40:11;;;;;;;359.53;178.67;;;;;;;-141.97;80.39;47755.50;5036355;28;20181;-82
2022/11/09 05:42:38;;;;;;;343.13;166.53;;;;;;;-141.97;80.58;47874.69;5054049;28;20213;-82
2022/11/09 05:45:04;;;;;;;352.00;164.73;;;;;;;-141.97;80.05;47795.88;5054314;28;20197;-82
2022/11/09 05:47:30;;;;;;;314.30;153.40;;;;;;;-141.97;79.65;47767.03;5053933;28;20674;-82
2022/11/09 05:49:55;;;;;;;298.50;147.60;;;;;;;-141.97;79.43;47738.19;5055928;28;20177;-82
2022/11/09 05:52:20;;;;;;;279.27;131.77;;;;;;;-141.97;79.68;47803.56;5058388;28;20242;-82
2022/11/09 05:54:46;;;;;;;202.57;96.67;;;;;;;-141.97;79.52;47749.72;5036784;28;20185;-82
2022/11/09 05:57:11;;;;;;;160.70;76.80;;;;;;;-141.97;79.24;47757.41;5055068;28;20268;-82
2022/11/09 05:59:36;;;;;;;152.30;67.57;;;;;;;-141.97;79.57;47728.59;5055255;28;20181;-82
2022/11/09 06:02:02;;;;;;;131.87;61.33;;;;;;;-141.97;79.32;47753.56;5036181;28;20196;-81
2022/11/09 06:04:27;;;;;;;129.00;57.90;;;;;;;-141.97;79.10;47747.81;5053481;28;20634;-82
2022/11/09 06:06:53;;;;;;;117.63;54.30;;;;;;;-141.97;79.65;47753.56;5052981;28;20204;-82
2022/11/09 06:09:18;;;;;;;106.30;48.90;;;;;;;-141.97;80.39;47788.19;5053349;28;20173;-81
2022/11/09 06:11:44;;;;;;;103.47;47.63;;;;;;;-141.97;81.12;47722.81;5053873;28;20264;-82
2022/11/09 06:14:09;;;;;;;115.33;49.63;;;;;;;-141.97;82.44;47745.88;5054149;28;20272;-81
2022/11/09 06:16:35;;;;;;;102.90;48.03;;;;;;;-141.97;83.22;47782.41;5053601;28;20192;-82
2022/11/09 06:19:00;;;;;;;98.60;47.10;;;;;;;-141.97;83.54;47853.53;5053493;28;20266;-82
2022/11/09 06:21:26;;;;;;;99.37;47.37;;;;;;;-141.97;83.51;47740.13;5054369;28;20245;-82
2022/11/09 06:23:51;;;;;;;94.20;44.73;;;;;;;-141.97;83.68;47763.19;5055153;28;20254;-83
2022/11/09 06:26:17;;;;;;;112.27;49.77;;;;;;;-141.97;83.78;47795.88;5073310;28;20265;-82
2022/11/09 06:28:42;;;;;;;107.53;51.67;;;;;;;-141.97;83.71;47765.09;5070043;28;20213;-81
2022/11/09 06:31:11;;;;;;;117.50;52.13;;;;;;;-141.97;83.64;47753.56;5042016;28;20185;-82
2022/11/09 06:33:36;;;;;;;114.47;51.67;;;;;;;-141.97;83.26;47770.88;5053767;28;20185;-82
2022/11/09 06:36:03;;;;;;;110.03;47.60;;;;;;;-141.97;82.73;47855.44;5053307;28;20224;-82
2022/11/09 06:38:28;;;;;;;102.87;47.43;;;;;;;-141.97;82.08;47728.59;5052373;28;20185;-82
2022/11/09 06:40:56;;;;;;;106.37;47.47;;;;;;;-141.97;82.33;47742.03;5052726;28;20177;-82
2022/11/09 06:43:23;;;;;;;105.03;48.17;;;;;;;-141.97;81.22;47730.50;5053200;28;20189;-82
2022/11/09 06:45:48;;;;;;;116.93;49.67;;;;;;;-141.97;79.87;47726.66;5053327;28;20177;-82
2022/11/09 06:48:14;;;;;;;109.10;49.33;;;;;;;-141.97;79.62;47745.88;5052934;28;20208;-82
2022/11/09 06:50:39;;;;;;;110.77;47.73;;;;;;;-141.97;78.91;47776.63;5052623;28;20228;-83
2022/11/09 06:53:08;;;;;;;108.03;47.37;;;;;;;-141.97;78.68;47715.13;5052639;28;20191;-82
2022/11/09 06:55:35;;;;;;;113.57;47.73;;;;;;;-141.97;78.51;47778.56;5052853;28;20595;-83
2022/11/09 06:58:09;;;;;;;112.93;46.80;;;;;;;-141.97;78.51;47724.75;5053169;28;20276;-82
2022/11/09 07:00:35;;;;;;;112.27;48.40;;;;;;;-141.97;78.45;47695.91;5065926;28;20180;-84
2022/11/09 07:03:01;;;;;;;116.63;48.97;;;;;;;-141.97;78.25;47742.03;5071300;28;20185;-82
2022/11/09 07:05:27;;;;;;;108.57;48.57;;;;;;;-141.97;77.22;47790.09;5075515;28;20634;-82
2022/11/09 07:07:52;;;;;;;110.50;48.57;;;;;;;-141.97;76.61;47782.41;5072643;28;20204;-83
2022/11/09 07:10:18;;;;;;;113.37;48.83;;;;;;;-141.97;75.73;47868.91;5071093;28;20177;-82
2022/11/09 07:12:43;;;;;;;107.67;48.43;;;;;;;-141.97;74.53;47747.81;5071290;28;20640;-84
2022/11/09 07:15:10;;;;;;;107.10;50.33;;;;;;;-141.97;73.82;47786.25;5071451;28;20184;-82
2022/11/09 07:17:38;;;;;;;120.53;50.13;;;;;;;-141.97;73.80;47776.63;5072060;28;20181;-83
2022/11/09 07:20:05;;;;;;;122.10;51.40;;;;;;;-141.97;73.27;47745.88;5070844;28;20186;-82
2022/11/09 07:22:30;;;;;;;119.13;52.67;;;;;;;-141.97;72.88;47755.50;5070857;28;20179;-83
2022/11/09 07:24:55;;;;;;;115.83;51.70;;;;;;;-141.97;72.13;47742.03;5061759;28;20178;-83
2022/11/09 07:27:21;;;;;;;118.40;53.10;;;;;;;-141.97;71.67;47761.25;5054570;28;20197;-83
2022/11/09 07:29:47;;;;;;;114.63;53.53;;;;;;;-141.97;71.04;47770.88;5058584;28;20211;-83
2022/11/09 07:32:12;;;;;;;111.73;51.50;;;;;;;-141.97;70.50;47755.50;5045256;28;20854;-83
2022/11/09 07:34:37;;;;;;;114.80;51.70;;;;;;;-141.97;69.86;47753.56;5051152;28;20203;-81
2022/11/09 07:37:03;;;;;;;116.80;51.83;;;;;;;-141.97;69.71;47753.56;5050554;28;20637;-82
2022/11/09 07:39:29;;;;;;;118.43;52.40;;;;;;;-141.97;68.95;47715.13;5049314;28;20182;-83
2022/11/09 07:41:54;;;;;;;113.97;50.30;;;;;;;-141.97;69.21;47772.78;5051295;28;20181;-82
2022/11/09 07:44:19;;;;;;;110.30;51.97;;;;;;;-141.97;69.61;47703.59;5054686;28;20216;-81
2022/11/09 07:46:48;;;;;;;109.07;52.20;;;;;;;-141.97;69.34;47768.94;5071555;28;20184;-82
2022/11/09 07:49:15;;;;;;;115.93;52.93;;;;;;;-141.97;69.51;47778.56;5072375;28;20227;-82
2022/11/09 07:51:41;;;;;;;109.70;51.27;;;;;;;-141.97;68.62;47718.97;5079198;28;20176;-83
2022/11/09 07:54:07;;;;;;;107.80;50.70;;;;;;;-141.97;67.40;47728.59;5055452;28;20188;-83
2022/11/09 07:56:32;;;;;;;118.93;53.03;;;;;;;-141.97;67.82;47742.03;5050490;28;20242;-83
2022/11/09 07:58:58;;;;;;;125.67;53.70;;;;;;;-141.97;66.80;47772.78;5067253;28;20184;-84
2022/11/09 08:01:23;;;;;;;121.13;55.63;;;;;;;-141.97;67.08;47703.59;5068990;28;20216;-83
2022/11/09 08:03:48;;;;;;;116.90;52.97;;;;;;;-141.97;66.22;47728.59;5069469;28;20661;-83
2022/11/09 08:06:14;;;;;;;109.83;52.60;;;;;;;-141.97;65.55;47840.06;5070591;28;20241;-83
2022/11/09 08:08:39;;;;;;;112.63;52.07;;;;;;;-141.97;64.88;47738.19;5071383;28;20658;-82
2022/11/09 08:11:04;;;;;;;109.63;52.03;;;;;;;-141.97;64.94;47876.59;5060714;28;20272;-83
2022/11/09 08:13:30;;;;;;;106.30;53.03;;;;;;;-141.97;64.15;47747.81;5051502;28;20184;-84
2022/11/09 08:15:55;;;;;;;110.27;53.03;;;;;;;-141.97;63.84;47728.59;5066975;28;20192;-84
2022/11/09 08:18:21;;;;;;;115.07;52.80;;;;;;;-141.97;63.77;47707.44;5066853;28;20196;-83
2022/11/09 08:20:48;;;;;;;116.73;53.60;;;;;;;-141.97;63.60;47715.13;5043387;28;20196;-84
2022/11/09 08:23:15;;;;;;;106.10;51.83;;;;;;;-141.97;63.18;47863.13;5060793;28;20267;-83
2022/11/09 08:25:40;;;;;;;108.87;53.97;;;;;;;-141.97;62.50;47745.88;5069050;28;20663;-83
2022/11/09 08:28:06;;;;;;;116.67;54.60;;;;;;;-141.97;62.43;47738.19;5072091;28;20196;-83
2022/11/09 08:30:32;;;;;;;114.17;54.17;;;;;;;-141.97;62.32;47838.16;5072352;28;20157;-83
2022/11/09 08:32:59;;;;;;;114.17;55.97;;;;;;;-141.97;61.71;47699.75;5036876;28;20293;-83
2022/11/09 08:35:25;;;;;;;116.17;57.20;;;;;;;-141.97;61.73;47703.59;5063579;28;20711;-83
2022/11/09 08:37:52;;;;;;;119.80;58.57;;;;;;;-141.97;62.55;47730.50;5071798;28;20188;-83
2022/11/09 08:40:20;;;;;;;122.43;58.30;;;;;;;-141.97;61.79;47722.81;5072806;28;20164;-82
2022/11/09 08:42:46;;;;;;;119.63;58.57;;;;;;;-141.97;61.91;47759.34;5070150;28;20191;-82
2022/11/09 08:45:11;;;;;;;127.23;59.23;;;;;;;-141.97;61.10;47694.00;5065945;28;20745;-83
2022/11/09 08:47:38;;;;;;;127.17;57.07;;;;;;;-141.97;60.70;47722.81;5061439;28;20280;-83
2022/11/09 08:50:04;;;;;;;114.73;55.37;;;;;;;-141.97;60.03;47707.44;5074905;28;20184;-84
2022/11/09 08:52:30;;;;;;;111.33;54.23;;;;;;;-141.97;59.14;47688.22;5070669;28;20165;-84
2022/11/09 08:54:56;;;;;;;98.20;49.43;;;;;;;-141.97;59.29;47722.81;5072411;28;20273;-83
2022/11/09 08:57:22;;;;;;;88.23;44.50;;;;;;;-141.97;58.75;47695.91;5055689;28;20181;-81
2022/11/09 08:59:47;;;;;;;93.53;46.53;;;;;;;-141.97;58.21;47694.00;5055207;28;20181;-82
2022/11/09 09:02:13;;;;;;;104.50;50.80;;;;;;;-141.97;57.69;47665.16;5055139;28;20177;-81
2022/11/09 09:04:39;;;;;;;95.37;49.97;;;;;;;-141.97;57.79;47663.22;5055917;28;20165;-81
2022/11/09 09:07:04;;;;;;;94.50;48.37;;;;;;;-141.97;57.40;47676.69;5075049;28;20250;-81
2022/11/09 09:09:30;;;;;;;94.90;48.33;;;;;;;-141.97;56.51;47818.94;5076322;28;20165;-81
2022/11/09 09:11:56;;;;;;;93.33;47.47;;;;;;;-141.97;55.73;47836.22;5074969;28;20191;-82
2022/11/09 09:14:22;;;;;;;89.33;46.70;;;;;;;-141.97;55.89;47703.59;5055580;28;20165;-82
2022/11/09 09:16:47;;;;;;;87.83;46.40;;;;;;;-141.97;55.16;47684.38;5069982;28;20636;-82
2022/11/09 09:19:13;;;;;;;105.37;48.20;;;;;;;-141.97;55.61;47694.00;5075149;28;20187;-81
2022/11/09 09:21:38;;;;;;;85.37;43.97;;;;;;;-141.97;55.48;47690.16;5054912;28;20177;-81
2022/11/09 09:24:04;;;;;;;89.47;45.60;;;;;;;-141.97;55.38;47661.31;5054674;28;20208;-81
2022/11/09 09:26:30;;;;;;;86.53;43.13;;;;;;;-141.97;54.47;47684.38;5055062;28;20173;-81
2022/11/09 09:28:58;;;;;;;81.63;43.67;;;;;;;-141.97;53.93;47640.16;5054773;28;20260;-81
2022/11/09 09:31:24;;;;;;;84.00;43.10;;;;;;;-141.97;53.66;47682.47;5073400;28;20260;-81
2022/11/09 09:33:49;;;;;;;79.23;42.50;;;;;;;-141.97;53.41;47682.47;5059292;28;20203;-81
2022/11/09 09:36:20;;;;;;;78.83;40.67;;;;;;;-141.97;52.98;47669.00;5054861;28;20701;-81
2022/11/09 09:38:46;;;;;;;75.57;39.57;;;;;;;-141.97;53.22;47713.22;5068392;28;20657;-82
2022/11/09 09:41:26;;;;;;;71.93;38.40;;;;;;;-141.97;52.56;47657.47;5069460;28;20185;-81
2022/11/09 09:43:57;;;;;;;67.83;37.43;;;;;;;-141.97;52.83;47665.16;5072529;28;20172;-82
2022/11/09 09:46:30;;;;;;;66.77;37.87;;;;;;;-141.97;53.38;47694.00;5073918;28;20168;-82
2022/11/09 09:49:12;;;;;;;68.23;37.83;;;;;;;-141.97;53.52;47692.06;5062676;28;20240;-81
2022/11/09 09:51:44;;;;;;;75.67;38.87;;;;;;;-141.97;53.02;47630.56;5073072;28;20189;-82
2022/11/09 09:54:23;;;;;;;73.13;39.27;;;;;;;-141.97;52.29;47676.69;5081770;28;20165;-80
2022/11/09 09:56:52;;;;;;;69.63;37.27;;;;;;;-141.97;51.96;47680.53;5077961;28;20522;-81
2022/11/09 09:59:30;;;;;;;59.47;34.70;;;;;;;-141.97;52.22;47657.47;5074514;28;20547;-82
2022/11/09 10:01:57;;;;;;;63.27;35.23;;;;;;;-141.97;51.84;47670.91;5073391;28;20172;-81
2022/11/09 10:04:31;;;;;;;63.83;35.17;;;;;;;-141.97;51.01;47636.31;5073757;28;20177;-81
2022/11/09 10:07:02;;;;;;;64.43;35.87;;;;;;;-141.97;51.19;47688.22;5073921;28;20178;-80
2022/11/09 10:09:30;;;;;;;65.67;35.53;;;;;;;-141.97;51.77;47701.69;5056317;28;20175;-80
2022/11/09 10:12:11;;;;;;;63.80;34.03;;;;;;;-141.97;51.50;47626.72;5074212;28;20601;-81
2022/11/09 10:14:54;;;;;;;65.90;35.43;;;;;;;-141.97;51.36;47599.81;5074570;28;20164;-82
2022/11/09 10:17:32;;;;;;;64.90;36.77;;;;;;;-141.97;51.29;47686.31;5067145;28;20231;-80
2022/11/09 10:20:00;;;;;;;59.37;33.60;;;;;;;-141.97;50.86;47686.31;5074402;28;20996;-81
2022/11/09 10:22:47;;;;;;;58.03;32.63;;;;;;;-141.97;50.23;47661.31;5073390;28;20212;-80
2022/11/09 10:25:25;;;;;;;57.20;32.93;;;;;;;-141.97;49.38;47642.09;5074044;28;20157;-80
2022/11/09 10:27:54;;;;;;;56.47;33.10;;;;;;;-141.97;49.57;47692.06;5073694;28;20188;-81
2022/11/09 10:30:22;;;;;;;60.97;35.73;;;;;;;-141.97;50.07;47665.16;5074721;28;20161;-81
2022/11/09 10:32:50;;;;;;;60.97;33.33;;;;;;;-141.97;49.82;47653.63;5081724;28;20164;-80
2022/11/09 10:35:23;;;;;;;61.77;36.00;;;;;;;-141.97;50.02;47653.63;5075945;28;20588;-81
2022/11/09 10:37:51;;;;;;;61.97;35.77;;;;;;;-141.97;49.95;47665.16;5063356;28;20164;-81
2022/11/09 10:40:19;;;;;;;61.43;35.07;;;;;;;-141.97;50.23;47699.75;5074047;28;20169;-80
2022/11/09 10:42:49;;;;;;;54.00;32.77;;;;;;;-141.97;49.65;47620.94;5068763;28;20177;-80
2022/11/09 10:45:27;;;;;;;55.07;33.20;;;;;;;-141.97;49.54;47542.16;5053304;28;20170;-81
2022/11/09 10:47:53;;;;;;;53.80;31.33;;;;;;;-141.97;50.56;47680.53;5053115;28;20201;-81
2022/11/09 10:50:22;;;;;;;46.73;29.47;;;;;;;-141.97;50.96;47686.31;5065639;28;20329;-81
2022/11/09 10:52:47;;;;;;;55.93;30.57;;;;;;;-141.97;50.38;47644.00;5069032;28;20171;-81
2022/11/09 10:55:27;;;;;;;48.67;28.60;;;;;;;-141.97;49.82;47622.88;5053471;28;20184;-81
2022/11/09 10:58:18;;;;;;;49.67;30.17;;;;;;;-141.97;49.33;47653.63;5043841;28;20240;-80
2022/11/09 11:01:00;;;;;;;58.93;32.00;;;;;;;-141.97;49.80;47661.31;5072186;28;20175;-80